createdAt,value
2018-09-12T00:00:35.565Z,932.56
2018-09-12T00:01:35.521Z,932.53
2018-09-12T00:02:35.502Z,932.62
2018-09-12T00:03:35.496Z,932.58
2018-09-12T00:04:35.458Z,932.59
2018-09-12T00:05:35.440Z,932.57
2018-09-12T00:06:35.421Z,932.53
2018-09-12T00:07:35.383Z,932.53
2018-09-12T00:08:35.376Z,932.54
2018-09-12T00:09:35.332Z,932.56
2018-09-12T00:10:35.312Z,932.53
2018-09-12T00:11:35.304Z,932.49
2018-09-12T00:12:35.271Z,932.54
2018-09-12T00:13:35.242Z,932.55
2018-09-12T00:14:35.219Z,932.58
2018-09-12T00:15:35.207Z,932.53
2018-09-12T00:16:35.176Z,932.50
2018-09-12T00:17:35.158Z,932.60
2018-09-12T00:18:35.128Z,932.51
2018-09-12T00:19:35.109Z,932.62
2018-09-12T00:20:35.094Z,932.61
2018-09-12T00:21:35.054Z,932.64
2018-09-12T00:22:35.031Z,932.60
2018-09-12T00:23:35.004Z,932.59
2018-09-12T00:24:34.987Z,932.64
2018-09-12T00:25:34.960Z,932.63
2018-09-12T00:26:34.948Z,932.64
2018-09-12T00:27:34.923Z,932.63
2018-09-12T00:28:34.892Z,932.69
2018-09-12T00:29:34.878Z,932.65
2018-09-12T00:30:34.856Z,932.67
2018-09-12T00:31:34.814Z,932.67
2018-09-12T00:32:34.797Z,932.62
2018-09-12T00:33:34.774Z,932.65
2018-09-12T00:34:34.768Z,932.63
2018-09-12T00:35:34.914Z,932.63
2018-09-12T00:36:34.716Z,932.65
2018-09-12T00:37:34.689Z,932.65
2018-09-12T00:38:34.651Z,932.64
2018-09-12T00:39:34.648Z,932.57
2018-09-12T00:40:34.617Z,932.63
2018-09-12T00:41:34.585Z,932.66
2018-09-12T00:42:34.572Z,932.67
2018-09-12T00:43:34.549Z,932.62
2018-09-12T00:44:34.515Z,932.68
2018-09-12T00:45:34.504Z,932.71
2018-09-12T00:46:34.477Z,932.68
2018-09-12T00:47:34.456Z,932.68
2018-09-12T00:48:34.417Z,932.71
2018-09-12T00:49:34.411Z,932.70
2018-09-12T00:50:34.382Z,932.70
2018-09-12T00:51:34.350Z,932.69
2018-09-12T00:52:34.328Z,932.67
2018-09-12T00:53:34.299Z,932.69
2018-09-12T00:54:34.276Z,932.70
2018-09-12T00:55:34.249Z,932.71
2018-09-12T00:56:34.232Z,932.71
2018-09-12T00:57:34.206Z,932.78
2018-09-12T00:58:34.185Z,932.73
2018-09-12T00:59:34.158Z,932.79
2018-09-12T01:00:34.141Z,932.75
2018-09-12T01:01:34.131Z,932.83
2018-09-12T01:02:34.101Z,932.78
2018-09-12T01:03:34.075Z,932.69
2018-09-12T01:04:34.042Z,932.79
2018-09-12T01:05:34.026Z,932.75
2018-09-12T01:06:33.996Z,932.78
2018-09-12T01:07:33.973Z,932.80
2018-09-12T01:08:33.962Z,932.77
2018-09-12T01:09:33.920Z,932.80
2018-09-12T01:10:33.901Z,932.83
2018-09-12T01:11:33.881Z,932.84
2018-09-12T01:12:33.865Z,932.82
2018-09-12T01:13:33.845Z,932.83
2018-09-12T01:14:33.808Z,932.87
2018-09-12T01:15:33.799Z,932.88
2018-09-12T01:16:33.756Z,932.86
2018-09-12T01:17:33.752Z,932.81
2018-09-12T01:18:33.726Z,932.85
2018-09-12T01:19:33.687Z,932.87
2018-09-12T01:20:33.685Z,932.86
2018-09-12T01:21:33.646Z,932.88
2018-09-12T01:22:33.621Z,932.79
2018-09-12T01:23:33.598Z,932.82
2018-09-12T01:24:33.573Z,932.91
2018-09-12T01:25:33.558Z,932.84
2018-09-12T01:26:33.536Z,932.87
2018-09-12T01:27:33.512Z,932.84
2018-09-12T01:28:33.491Z,932.89
2018-09-12T01:29:33.456Z,932.84
2018-09-12T01:30:33.428Z,932.84
2018-09-12T01:31:33.422Z,932.79
2018-09-12T01:32:33.398Z,932.81
2018-09-12T01:33:33.377Z,932.80
2018-09-12T01:34:33.336Z,932.85
2018-09-12T01:35:33.315Z,932.77
2018-09-12T01:36:33.301Z,932.90
2018-09-12T01:37:33.277Z,932.83
2018-09-12T01:38:33.261Z,932.86
2018-09-12T01:39:33.218Z,932.84
2018-09-12T01:40:33.194Z,932.84
2018-09-12T01:41:33.186Z,932.81
2018-09-12T01:42:33.152Z,932.85
2018-09-12T01:43:33.123Z,932.85
2018-09-12T01:44:33.105Z,932.84
2018-09-12T01:45:33.078Z,932.85
2018-09-12T01:46:33.049Z,932.89
2018-09-12T01:47:33.042Z,932.86
2018-09-12T01:48:33.020Z,932.83
2018-09-12T01:49:33.002Z,932.83
2018-09-12T01:50:32.974Z,932.84
2018-09-12T01:51:32.954Z,932.77
2018-09-12T01:52:32.932Z,932.84
2018-09-12T01:53:32.893Z,932.84
2018-09-12T01:54:32.867Z,932.81
2018-09-12T01:55:32.859Z,932.79
2018-09-12T01:56:32.835Z,932.84
2018-09-12T01:57:32.795Z,932.77
2018-09-12T01:58:32.785Z,932.81
2018-09-12T01:59:32.769Z,932.86
2018-09-12T02:00:32.736Z,932.76
2018-09-12T02:01:32.713Z,932.82
2018-09-12T02:02:32.677Z,932.82
2018-09-12T02:03:33.218Z,932.85
2018-09-12T02:04:32.648Z,932.85
2018-09-12T02:05:32.623Z,932.82
2018-09-12T02:06:32.597Z,932.81
2018-09-12T02:07:32.570Z,932.81
2018-09-12T02:08:32.552Z,932.76
2018-09-12T02:09:32.533Z,932.74
2018-09-12T02:10:32.489Z,932.76
2018-09-12T02:11:32.468Z,932.76
2018-09-12T02:12:32.452Z,932.79
2018-09-12T02:13:32.422Z,932.79
2018-09-12T02:14:32.402Z,932.80
2018-09-12T02:15:32.388Z,932.76
2018-09-12T02:16:32.366Z,932.72
2018-09-12T02:17:32.336Z,932.71
2018-09-12T02:18:32.315Z,932.70
2018-09-12T02:19:32.282Z,932.68
2018-09-12T02:20:32.271Z,932.72
2018-09-12T02:21:32.232Z,932.76
2018-09-12T02:22:32.215Z,932.67
2018-09-12T02:23:32.186Z,932.68
2018-09-12T02:24:32.164Z,932.78
2018-09-12T02:25:32.136Z,932.74
2018-09-12T02:26:32.125Z,932.74
2018-09-12T02:27:32.099Z,932.65
2018-09-12T02:28:32.079Z,932.67
2018-09-12T02:29:32.055Z,932.69
2018-09-12T02:30:32.022Z,932.69
2018-09-12T02:31:32.001Z,932.68
2018-09-12T02:32:31.979Z,932.64
2018-09-12T02:33:31.972Z,932.65
2018-09-12T02:34:31.928Z,932.63
2018-09-12T02:35:31.927Z,932.70
2018-09-12T02:36:31.911Z,932.61
2018-09-12T02:37:31.873Z,932.62
2018-09-12T02:38:31.842Z,932.66
2018-09-12T02:39:31.822Z,932.60
2018-09-12T02:40:31.790Z,932.61
2018-09-12T02:41:31.765Z,932.64
2018-09-12T02:42:31.753Z,932.53
2018-09-12T02:43:31.721Z,932.55
2018-09-12T02:44:31.699Z,932.57
2018-09-12T02:45:31.681Z,932.54
2018-09-12T02:46:31.665Z,932.38
2018-09-12T02:47:31.639Z,932.49
2018-09-12T02:48:31.621Z,932.47
2018-09-12T02:49:31.583Z,932.43
2018-09-12T02:50:31.558Z,932.45
2018-09-12T02:51:31.540Z,932.44
2018-09-12T02:52:31.512Z,932.45
2018-09-12T02:53:31.496Z,932.45
2018-09-12T02:54:31.480Z,932.38
2018-09-12T02:55:31.442Z,932.41
2018-09-12T02:56:31.425Z,932.43
2018-09-12T02:57:31.406Z,932.44
2018-09-12T02:58:31.380Z,932.44
2018-09-12T02:59:31.340Z,932.39
2018-09-12T03:00:31.335Z,932.44
2018-09-12T03:01:31.296Z,932.41
2018-09-12T03:02:31.287Z,932.39
2018-09-12T03:03:31.254Z,932.29
2018-09-12T03:04:31.240Z,932.39
2018-09-12T03:05:31.747Z,932.36
2018-09-12T03:06:31.197Z,932.25
2018-09-12T03:07:31.163Z,932.34
2018-09-12T03:08:31.134Z,932.32
2018-09-12T03:09:31.126Z,932.32
2018-09-12T03:10:31.097Z,932.32
2018-09-12T03:11:31.064Z,932.32
2018-09-12T03:12:31.056Z,932.30
2018-09-12T03:13:31.037Z,932.28
2018-09-12T03:14:31.002Z,932.28
2018-09-12T03:15:30.974Z,932.25
2018-09-12T03:16:30.962Z,932.21
2018-09-12T03:17:30.938Z,932.23
2018-09-12T03:18:30.913Z,932.24
2018-09-12T03:19:30.883Z,932.23
2018-09-12T03:20:30.918Z,932.28
2018-09-12T03:21:30.844Z,932.28
2018-09-12T03:22:30.815Z,932.28
2018-09-12T03:23:30.778Z,932.30
2018-09-12T03:24:30.766Z,932.24
2018-09-12T03:25:30.746Z,932.19
2018-09-12T03:26:30.727Z,932.24
2018-09-12T03:27:30.698Z,932.20
2018-09-12T03:28:30.665Z,932.19
2018-09-12T03:29:30.640Z,932.17
2018-09-12T03:30:30.625Z,932.20
2018-09-12T03:31:30.590Z,932.22
2018-09-12T03:32:30.571Z,932.26
2018-09-12T03:33:30.565Z,932.20
2018-09-12T03:34:30.531Z,932.23
2018-09-12T03:35:30.497Z,932.20
2018-09-12T03:36:30.495Z,932.18
2018-09-12T03:37:30.471Z,932.20
2018-09-12T03:38:30.432Z,932.18
2018-09-12T03:39:30.420Z,932.18
2018-09-12T03:40:30.392Z,932.17
2018-09-12T03:41:30.368Z,932.17
2018-09-12T03:42:30.334Z,932.16
2018-09-12T03:43:30.312Z,932.17
2018-09-12T03:44:30.290Z,932.17
2018-09-12T03:45:30.264Z,932.15
2018-09-12T03:46:30.243Z,932.13
2018-09-12T03:47:30.217Z,932.13
2018-09-12T03:48:30.205Z,932.11
2018-09-12T03:49:30.176Z,932.13
2018-09-12T03:50:30.143Z,932.04
2018-09-12T03:51:30.122Z,932.02
2018-09-12T03:52:30.111Z,932.01
2018-09-12T03:53:30.090Z,932.09
2018-09-12T03:54:30.066Z,932.09
2018-09-12T03:55:30.040Z,932.09
2018-09-12T03:56:30.005Z,932.11
2018-09-12T03:57:29.983Z,932.10
2018-09-12T03:58:29.953Z,932.05
2018-09-12T03:59:29.945Z,932.10
2018-09-12T04:00:29.923Z,932.08
2018-09-12T04:01:30.413Z,932.02
2018-09-12T04:02:29.875Z,932.00
2018-09-12T04:03:30.137Z,932.01
2018-09-12T04:04:29.825Z,931.97
2018-09-12T04:05:29.805Z,931.96
2018-09-12T04:06:29.765Z,931.91
2018-09-12T04:07:29.763Z,931.94
2018-09-12T04:08:29.714Z,931.91
2018-09-12T04:09:29.697Z,931.84
2018-09-12T04:10:29.670Z,931.87
2018-09-12T04:11:29.664Z,931.84
2018-09-12T04:12:29.628Z,931.83
2018-09-12T04:13:29.598Z,931.82
2018-09-12T04:14:29.580Z,931.83
2018-09-12T04:15:29.554Z,931.76
2018-09-12T04:16:29.528Z,931.79
2018-09-12T04:17:29.504Z,931.80
2018-09-12T04:18:29.483Z,931.78
2018-09-12T04:19:29.469Z,931.77
2018-09-12T04:20:29.435Z,931.73
2018-09-12T04:21:29.426Z,931.75
2018-09-12T04:22:29.388Z,931.73
2018-09-12T04:23:29.380Z,931.73
2018-09-12T04:24:29.345Z,931.78
2018-09-12T04:25:29.318Z,931.76
2018-09-12T04:26:29.295Z,931.76
2018-09-12T04:27:29.286Z,931.68
2018-09-12T04:28:29.266Z,931.71
2018-09-12T04:29:29.234Z,931.69
2018-09-12T04:30:29.211Z,931.71
2018-09-12T04:31:29.186Z,931.63
2018-09-12T04:32:29.168Z,931.67
2018-09-12T04:33:29.140Z,931.60
2018-09-12T04:34:29.118Z,931.65
2018-09-12T04:35:29.087Z,931.60
2018-09-12T04:36:29.058Z,931.60
2018-09-12T04:37:29.050Z,931.63
2018-09-12T04:38:29.014Z,931.60
2018-09-12T04:39:28.999Z,931.59
2018-09-12T04:40:28.967Z,931.53
2018-09-12T04:41:28.950Z,931.53
2018-09-12T04:42:28.914Z,931.56
2018-09-12T04:43:28.907Z,931.50
2018-09-12T04:44:28.868Z,931.51
2018-09-12T04:45:28.848Z,931.42
2018-09-12T04:46:28.824Z,931.44
2018-09-12T04:47:28.804Z,931.45
2018-09-12T04:48:28.809Z,931.43
2018-09-12T04:49:28.756Z,931.44
2018-09-12T04:50:28.724Z,931.42
2018-09-12T04:51:28.711Z,931.41
2018-09-12T04:52:28.679Z,931.34
2018-09-12T04:53:28.652Z,931.36
2018-09-12T04:54:28.630Z,931.30
2018-09-12T04:55:28.617Z,931.31
2018-09-12T04:56:28.598Z,931.29
2018-09-12T04:57:28.573Z,931.30
2018-09-12T04:58:28.547Z,931.27
2018-09-12T04:59:28.531Z,931.25
2018-09-12T05:00:28.484Z,931.21
2018-09-12T05:01:28.480Z,931.18
2018-09-12T05:02:28.434Z,931.17
2018-09-12T05:03:28.415Z,931.14
2018-09-12T05:04:28.392Z,931.16
2018-09-12T05:05:28.365Z,931.16
2018-09-12T05:06:28.336Z,931.02
2018-09-12T05:07:28.323Z,931.12
2018-09-12T05:08:28.309Z,931.10
2018-09-12T05:09:28.269Z,931.15
2018-09-12T05:10:28.265Z,931.10
2018-09-12T05:11:28.232Z,931.21
2018-09-12T05:12:28.209Z,931.17
2018-09-12T05:13:28.189Z,931.15
2018-09-12T05:14:28.149Z,931.16
2018-09-12T05:15:28.135Z,931.20
2018-09-12T05:16:28.118Z,931.20
2018-09-12T05:17:28.092Z,931.11
2018-09-12T05:18:28.069Z,931.19
2018-09-12T05:19:28.037Z,931.17
2018-09-12T05:20:28.017Z,931.23
2018-09-12T05:21:28.000Z,931.26
2018-09-12T05:22:27.973Z,931.22
2018-09-12T05:23:27.937Z,931.15
2018-09-12T05:24:27.928Z,931.21
2018-09-12T05:25:27.884Z,931.15
2018-09-12T05:26:27.869Z,931.15
2018-09-12T05:27:27.852Z,931.12
2018-09-12T05:28:27.829Z,931.13
2018-09-12T05:29:27.806Z,931.11
2018-09-12T05:30:27.770Z,931.13
2018-09-12T05:31:27.748Z,931.02
2018-09-12T05:32:27.734Z,931.03
2018-09-12T05:33:28.253Z,931.01
2018-09-12T05:34:27.683Z,931.06
2018-09-12T05:35:27.662Z,931.04
2018-09-12T05:36:27.663Z,931.01
2018-09-12T05:37:27.609Z,931.00
2018-09-12T05:38:27.578Z,931.01
2018-09-12T05:39:27.558Z,930.89
2018-09-12T05:40:27.544Z,930.90
2018-09-12T05:41:27.504Z,930.90
2018-09-12T05:42:27.487Z,930.86
2018-09-12T05:43:27.459Z,930.87
2018-09-12T05:44:27.461Z,930.80
2018-09-12T05:45:27.424Z,930.77
2018-09-12T05:46:27.388Z,930.80
2018-09-12T05:47:27.364Z,930.80
2018-09-12T05:48:27.337Z,930.82
2018-09-12T05:49:27.328Z,930.82
2018-09-12T05:50:27.303Z,930.80
2018-09-12T05:51:27.487Z,930.80
2018-09-12T05:52:27.248Z,930.80
2018-09-12T05:53:27.225Z,930.77
2018-09-12T05:54:27.196Z,930.72
2018-09-12T05:55:27.178Z,930.68
2018-09-12T05:56:27.153Z,930.71
2018-09-12T05:57:27.140Z,930.72
2018-09-12T05:58:27.105Z,930.72
2018-09-12T05:59:27.090Z,930.69
2018-09-12T06:00:27.058Z,930.72
2018-09-12T06:01:27.034Z,930.72
2018-09-12T06:02:27.018Z,930.70
2018-09-12T06:03:26.981Z,930.65
2018-09-12T06:04:26.969Z,930.69
2018-09-12T06:05:26.948Z,930.69
2018-09-12T06:06:26.978Z,930.69
2018-09-12T06:07:26.900Z,930.64
2018-09-12T06:08:26.862Z,930.63
2018-09-12T06:09:26.841Z,930.68
2018-09-12T06:10:26.821Z,930.66
2018-09-12T06:11:26.792Z,930.64
2018-09-12T06:12:26.778Z,930.67
2018-09-12T06:13:26.745Z,930.63
2018-09-12T06:14:26.733Z,930.68
2018-09-12T06:15:26.714Z,930.65
2018-09-12T06:16:26.684Z,930.69
2018-09-12T06:17:26.660Z,930.66
2018-09-12T06:18:26.626Z,930.67
2018-09-12T06:19:26.610Z,930.65
2018-09-12T06:20:26.569Z,930.66
2018-09-12T06:21:26.568Z,930.50
2018-09-12T06:22:26.531Z,930.64
2018-09-12T06:23:26.505Z,930.62
2018-09-12T06:24:26.493Z,930.59
2018-09-12T06:25:26.467Z,930.58
2018-09-12T06:26:26.448Z,930.54
2018-09-12T06:27:26.405Z,930.61
2018-09-12T06:28:26.400Z,930.46
2018-09-12T06:29:26.357Z,930.53
2018-09-12T06:30:26.341Z,930.52
2018-09-12T06:31:26.328Z,930.51
2018-09-12T06:32:26.291Z,930.54
2018-09-12T06:33:26.284Z,930.34
2018-09-12T06:34:26.252Z,930.49
2018-09-12T06:35:26.225Z,930.51
2018-09-12T06:36:26.192Z,930.57
2018-09-12T06:37:26.182Z,930.52
2018-09-12T06:38:26.234Z,930.53
2018-09-12T06:39:26.133Z,930.50
2018-09-12T06:40:26.114Z,930.53
2018-09-12T06:41:26.078Z,930.55
2018-09-12T06:42:26.053Z,930.55
2018-09-12T06:43:26.040Z,930.55
2018-09-12T06:44:26.019Z,930.54
2018-09-12T06:45:25.992Z,930.45
2018-09-12T06:46:25.956Z,930.44
2018-09-12T06:47:25.939Z,930.42
2018-09-12T06:48:26.461Z,930.49
2018-09-12T06:49:25.896Z,930.42
2018-09-12T06:50:25.857Z,930.44
2018-09-12T06:51:25.838Z,930.43
2018-09-12T06:52:26.349Z,930.38
2018-09-12T06:53:25.798Z,930.32
2018-09-12T06:54:25.769Z,930.38
2018-09-12T06:55:25.740Z,930.42
2018-09-12T06:56:25.713Z,930.33
2018-09-12T06:57:25.696Z,930.33
2018-09-12T06:58:25.677Z,930.35
2018-09-12T06:59:25.642Z,930.38
2018-09-12T07:00:25.636Z,930.32
2018-09-12T07:01:25.614Z,930.34
2018-09-12T07:02:25.588Z,930.30
2018-09-12T07:03:25.563Z,930.24
2018-09-12T07:04:25.546Z,930.27
2018-09-12T07:05:25.515Z,930.25
2018-09-12T07:06:25.485Z,930.30
2018-09-12T07:07:25.472Z,930.29
2018-09-12T07:08:25.446Z,930.24
2018-09-12T07:09:25.434Z,930.27
2018-09-12T07:10:25.381Z,930.29
2018-09-12T07:11:25.372Z,930.28
2018-09-12T07:12:25.349Z,930.21
2018-09-12T07:13:25.322Z,930.24
2018-09-12T07:14:25.297Z,930.19
2018-09-12T07:15:25.275Z,930.07
2018-09-12T07:16:25.240Z,930.26
2018-09-12T07:17:25.221Z,930.17
2018-09-12T07:18:25.192Z,930.22
2018-09-12T07:19:25.169Z,930.19
2018-09-12T07:20:25.149Z,930.22
2018-09-12T07:21:25.132Z,930.20
2018-09-12T07:22:25.107Z,930.07
2018-09-12T07:23:25.075Z,930.19
2018-09-12T07:24:25.143Z,930.10
2018-09-12T07:25:25.026Z,930.19
2018-09-12T07:26:25.017Z,930.15
2018-09-12T07:27:24.979Z,930.17
2018-09-12T07:28:24.968Z,930.16
2018-09-12T07:29:24.949Z,930.13
2018-09-12T07:30:24.934Z,930.20
2018-09-12T07:31:24.889Z,930.16
2018-09-12T07:32:24.874Z,930.19
2018-09-12T07:33:24.848Z,930.14
2018-09-12T07:34:24.812Z,930.05
2018-09-12T07:35:24.801Z,930.13
2018-09-12T07:36:24.774Z,930.13
2018-09-12T07:37:24.754Z,930.13
2018-09-12T07:38:24.717Z,930.03
2018-09-12T07:39:24.701Z,930.11
2018-09-12T07:40:24.673Z,930.09
2018-09-12T07:41:24.648Z,930.01
2018-09-12T07:42:24.641Z,930.10
2018-09-12T07:43:24.616Z,930.08
2018-09-12T07:44:24.579Z,930.08
2018-09-12T07:45:24.563Z,929.94
2018-09-12T07:46:24.544Z,930.06
2018-09-12T07:47:24.520Z,930.10
2018-09-12T07:48:24.481Z,930.06
2018-09-12T07:49:24.472Z,930.04
2018-09-12T07:50:24.441Z,930.04
2018-09-12T07:51:24.416Z,930.01
2018-09-12T07:52:24.380Z,930.07
2018-09-12T07:53:24.369Z,930.10
2018-09-12T07:54:24.338Z,930.06
2018-09-12T07:55:24.327Z,930.08
2018-09-12T07:56:24.399Z,930.12
2018-09-12T07:57:24.281Z,930.18
2018-09-12T07:58:24.253Z,930.12
2018-09-12T07:59:24.229Z,930.17
2018-09-12T08:00:24.213Z,930.16
2018-09-12T08:01:24.169Z,930.24
2018-09-12T08:02:24.160Z,930.25
2018-09-12T08:03:24.117Z,930.23
2018-09-12T08:04:24.101Z,930.20
2018-09-12T08:05:24.090Z,930.21
2018-09-12T08:06:24.047Z,930.21
2018-09-12T08:07:24.037Z,930.13
2018-09-12T08:08:24.014Z,930.25
2018-09-12T08:09:23.976Z,930.24
2018-09-12T08:10:23.967Z,930.26
2018-09-12T08:11:23.930Z,930.31
2018-09-12T08:12:23.901Z,930.37
2018-09-12T08:13:23.896Z,930.34
2018-09-12T08:14:23.869Z,930.32
2018-09-12T08:15:23.837Z,930.34
2018-09-12T08:16:23.808Z,930.37
2018-09-12T08:17:23.804Z,930.35
2018-09-12T08:18:23.768Z,930.32
2018-09-12T08:19:23.751Z,930.32
2018-09-12T08:20:23.719Z,930.34
2018-09-12T08:21:23.700Z,930.36
2018-09-12T08:22:23.675Z,930.36
2018-09-12T08:23:23.651Z,930.39
2018-09-12T08:24:23.617Z,930.41
2018-09-12T08:25:23.607Z,930.42
2018-09-12T08:26:23.584Z,930.45
2018-09-12T08:27:23.553Z,930.45
2018-09-12T08:28:23.535Z,930.53
2018-09-12T08:29:23.589Z,930.53
2018-09-12T08:30:23.488Z,930.54
2018-09-12T08:31:23.470Z,930.55
2018-09-12T08:32:23.426Z,930.55
2018-09-12T08:33:23.431Z,930.55
2018-09-12T08:34:23.386Z,930.56
2018-09-12T08:35:23.372Z,930.58
2018-09-12T08:36:23.360Z,930.61
2018-09-12T08:37:23.310Z,930.60
2018-09-12T08:38:23.298Z,930.63
2018-09-12T08:39:23.275Z,930.55
2018-09-12T08:40:23.238Z,930.60
2018-09-12T08:41:23.226Z,930.60
2018-09-12T08:42:23.206Z,930.67
2018-09-12T08:43:23.167Z,930.65
2018-09-12T08:44:23.152Z,930.58
2018-09-12T08:45:23.118Z,930.66
2018-09-12T08:46:23.090Z,930.65
2018-09-12T08:47:23.088Z,930.77
2018-09-12T08:48:23.049Z,930.74
2018-09-12T08:49:23.034Z,930.72
2018-09-12T08:50:22.994Z,930.72
2018-09-12T08:51:22.988Z,930.77
2018-09-12T08:52:22.960Z,930.74
2018-09-12T08:53:22.925Z,930.82
2018-09-12T08:54:22.901Z,930.86
2018-09-12T08:55:22.889Z,930.83
2018-09-12T08:56:22.871Z,930.79
2018-09-12T08:57:22.838Z,930.77
2018-09-12T08:58:22.807Z,930.82
2018-09-12T08:59:22.783Z,930.86
2018-09-12T09:00:22.824Z,930.86
2018-09-12T09:01:22.798Z,930.89
2018-09-12T09:02:22.711Z,930.86
2018-09-12T09:03:22.686Z,930.90
2018-09-12T09:04:22.661Z,930.89
2018-09-12T09:05:22.648Z,930.91
2018-09-12T09:06:22.612Z,930.94
2018-09-12T09:07:22.592Z,930.95
2018-09-12T09:08:22.584Z,930.87
2018-09-12T09:09:22.538Z,930.89
2018-09-12T09:10:22.525Z,930.92
2018-09-12T09:11:22.491Z,930.97
2018-09-12T09:12:22.481Z,930.93
2018-09-12T09:13:22.451Z,930.95
2018-09-12T09:14:22.436Z,931.00
2018-09-12T09:15:22.396Z,931.03
2018-09-12T09:16:22.370Z,930.99
2018-09-12T09:17:22.357Z,931.00
2018-09-12T09:18:22.335Z,930.97
2018-09-12T09:19:22.320Z,931.03
2018-09-12T09:20:22.276Z,930.95
2018-09-12T09:21:22.268Z,931.01
2018-09-12T09:22:22.225Z,931.07
2018-09-12T09:23:22.201Z,931.13
2018-09-12T09:24:22.183Z,931.04
2018-09-12T09:25:22.168Z,931.12
2018-09-12T09:26:22.133Z,931.18
2018-09-12T09:27:22.110Z,931.17
2018-09-12T09:28:22.098Z,931.17
2018-09-12T09:29:22.087Z,931.20
2018-09-12T09:30:22.047Z,931.22
2018-09-12T09:31:22.014Z,931.29
2018-09-12T09:32:22.004Z,931.26
2018-09-12T09:33:21.983Z,931.27
2018-09-12T09:34:21.941Z,931.25
2018-09-12T09:35:21.972Z,931.31
2018-09-12T09:36:21.907Z,931.33
2018-09-12T09:37:21.871Z,931.27
2018-09-12T09:38:21.867Z,931.31
2018-09-12T09:39:21.825Z,931.40
2018-09-12T09:40:21.811Z,931.42
2018-09-12T09:41:21.786Z,931.36
2018-09-12T09:42:21.752Z,931.45
2018-09-12T09:43:21.744Z,931.46
2018-09-12T09:44:21.707Z,931.42
2018-09-12T09:45:21.683Z,931.45
2018-09-12T09:46:21.668Z,931.54
2018-09-12T09:47:21.630Z,931.50
2018-09-12T09:48:21.672Z,931.53
2018-09-12T09:49:21.601Z,931.55
2018-09-12T09:50:21.572Z,931.54
2018-09-12T09:51:21.549Z,931.57
2018-09-12T09:52:21.515Z,931.63
2018-09-12T09:53:21.505Z,931.58
2018-09-12T09:54:21.476Z,931.60
2018-09-12T09:55:21.452Z,931.66
2018-09-12T09:56:21.421Z,931.69
2018-09-12T09:57:21.392Z,931.72
2018-09-12T09:58:21.383Z,931.73
2018-09-12T09:59:21.350Z,931.72
2018-09-12T10:00:21.387Z,931.77
2018-09-12T10:01:21.311Z,931.82
2018-09-12T10:02:21.305Z,931.83
2018-09-12T10:03:21.271Z,931.91
2018-09-12T10:04:21.250Z,931.85
2018-09-12T10:05:21.209Z,931.94
2018-09-12T10:06:21.193Z,931.92
2018-09-12T10:07:21.183Z,931.96
2018-09-12T10:08:21.294Z,931.94
2018-09-12T10:09:21.128Z,931.95
2018-09-12T10:10:21.104Z,932.04
2018-09-12T10:11:21.077Z,932.04
2018-09-12T10:12:21.051Z,931.98
2018-09-12T10:13:21.029Z,931.98
2018-09-12T10:14:21.025Z,932.10
2018-09-12T10:15:20.982Z,932.14
2018-09-12T10:16:20.977Z,932.06
2018-09-12T10:17:20.940Z,931.98
2018-09-12T10:18:20.936Z,932.01
2018-09-12T10:19:20.911Z,932.12
2018-09-12T10:20:20.873Z,932.22
2018-09-12T10:21:20.849Z,932.20
2018-09-12T10:22:20.831Z,932.22
2018-09-12T10:23:20.823Z,932.00
2018-09-12T10:24:20.918Z,932.19
2018-09-12T10:25:20.763Z,932.18
2018-09-12T10:26:20.754Z,932.33
2018-09-12T10:27:20.727Z,932.20
2018-09-12T10:28:20.695Z,932.37
2018-09-12T10:29:20.671Z,932.18
2018-09-12T10:30:20.663Z,932.24
2018-09-12T10:31:20.644Z,932.50
2018-09-12T10:32:20.605Z,932.40
2018-09-12T10:33:20.597Z,932.41
2018-09-12T10:34:20.583Z,932.34
2018-09-12T10:35:20.538Z,932.56
2018-09-12T10:36:20.540Z,932.46
2018-09-12T10:37:20.513Z,932.40
2018-09-12T10:38:20.486Z,932.40
2018-09-12T10:39:20.469Z,932.53
2018-09-12T10:40:20.442Z,932.61
2018-09-12T10:41:20.413Z,932.55
2018-09-12T10:42:20.386Z,932.54
2018-09-12T10:43:20.368Z,932.38
2018-09-12T10:44:20.341Z,932.80
2018-09-12T10:45:20.336Z,932.59
2018-09-12T10:46:20.315Z,932.77
2018-09-12T10:47:20.290Z,932.59
2018-09-12T10:48:20.295Z,932.91
2018-09-12T10:49:20.232Z,932.95
2018-09-12T10:50:20.223Z,932.75
2018-09-12T10:51:20.192Z,932.78
2018-09-12T10:52:20.182Z,932.53
2018-09-12T10:53:20.142Z,932.53
2018-09-12T10:54:20.135Z,932.71
2018-09-12T10:55:20.103Z,932.81
2018-09-12T10:56:20.093Z,932.63
2018-09-12T10:57:20.053Z,932.56
2018-09-12T10:58:20.051Z,932.58
2018-09-12T10:59:20.013Z,932.58
2018-09-12T11:00:19.992Z,932.53
2018-09-12T11:01:19.977Z,932.52
2018-09-12T11:02:19.963Z,932.45
2018-09-12T11:03:19.929Z,932.54
2018-09-12T11:04:19.968Z,932.52
2018-09-12T11:05:19.901Z,932.98
2018-09-12T11:06:19.865Z,932.80
2018-09-12T11:07:19.836Z,932.75
2018-09-12T11:08:19.822Z,932.78
2018-09-12T11:09:19.812Z,933.12
2018-09-12T11:10:19.787Z,932.80
2018-09-12T11:11:19.754Z,932.81
2018-09-12T11:12:19.749Z,933.21
2018-09-12T11:13:19.723Z,932.85
2018-09-12T11:14:19.699Z,932.89
2018-09-12T11:15:19.679Z,933.34
2018-09-12T11:16:19.666Z,933.30
2018-09-12T11:17:19.637Z,933.06
2018-09-12T11:18:19.619Z,932.79
2018-09-12T11:19:19.590Z,932.84
2018-09-12T11:20:19.564Z,932.97
2018-09-12T11:21:19.555Z,932.96
2018-09-12T11:22:19.536Z,932.88
2018-09-12T11:23:19.507Z,933.26
2018-09-12T11:24:19.499Z,933.35
2018-09-12T11:25:19.465Z,933.00
2018-09-12T11:26:19.438Z,933.06
2018-09-12T11:27:19.417Z,933.25
2018-09-12T11:28:19.395Z,933.20
2018-09-12T11:29:19.378Z,933.39
2018-09-12T11:30:19.358Z,933.42
2018-09-12T11:31:19.344Z,933.48
2018-09-12T11:32:19.327Z,933.16
2018-09-12T11:33:19.304Z,933.40
2018-09-12T11:34:19.309Z,933.37
2018-09-12T11:35:19.267Z,933.39
2018-09-12T11:36:19.241Z,933.19
2018-09-12T11:37:19.234Z,933.27
2018-09-12T11:38:19.216Z,933.33
2018-09-12T11:39:19.187Z,933.58
2018-09-12T11:40:19.153Z,933.55
2018-09-12T11:41:19.150Z,933.52
2018-09-12T11:42:19.116Z,933.62
2018-09-12T11:43:19.101Z,933.47
2018-09-12T11:44:19.077Z,933.10
2018-09-12T11:45:19.072Z,933.21
2018-09-12T11:46:19.051Z,933.55
2018-09-12T11:47:19.018Z,933.09
2018-09-12T11:48:19.009Z,933.64
2018-09-12T11:49:18.980Z,933.19
2018-09-12T11:50:18.955Z,933.68
2018-09-12T11:51:18.939Z,933.70
2018-09-12T11:52:18.934Z,933.40
2018-09-12T11:53:18.899Z,933.71
2018-09-12T11:54:18.880Z,933.47
2018-09-12T11:55:18.869Z,933.53
2018-09-12T11:56:18.842Z,933.79
2018-09-12T11:57:18.825Z,933.66
2018-09-12T11:58:18.810Z,933.70
2018-09-12T11:59:18.802Z,933.37
2018-09-12T12:00:18.765Z,933.73
2018-09-12T12:01:18.746Z,933.11
2018-09-12T12:02:18.811Z,933.69
2018-09-12T12:03:18.719Z,933.29
2018-09-12T12:04:18.701Z,933.29
2018-09-12T12:05:18.667Z,933.86
2018-09-12T12:06:18.645Z,933.79
2018-09-12T12:07:18.644Z,933.95
2018-09-12T12:08:18.607Z,933.91
2018-09-12T12:09:18.586Z,934.12
2018-09-12T12:10:18.588Z,934.13
2018-09-12T12:11:18.555Z,933.23
2018-09-12T12:12:18.549Z,935.52
2018-09-12T12:13:18.560Z,935.97
2018-09-12T12:14:18.510Z,933.61
2018-09-12T12:15:18.529Z,933.44
2018-09-12T12:16:18.474Z,933.47
2018-09-12T12:17:18.448Z,933.61
2018-09-12T12:18:18.425Z,933.34
2018-09-12T12:19:18.419Z,933.38
2018-09-12T12:20:18.384Z,933.41
2018-09-12T12:21:18.367Z,933.40
2018-09-12T12:22:18.904Z,933.23
2018-09-12T12:23:18.974Z,933.30
2018-09-12T12:24:18.303Z,933.48
2018-09-12T12:25:18.346Z,934.06
2018-09-12T12:26:18.272Z,933.49
2018-09-12T12:27:18.242Z,933.53
2018-09-12T12:28:18.229Z,934.83